sensor_id;sensor_type;location;lat;lon;timestamp;temperature;humidity
34360;DHT22;20624;55.870;26.506;2022-08-19T00:01:54;20.60;99.90
34360;DHT22;20624;55.870;26.506;2022-08-19T00:04:25;20.70;99.90
34360;DHT22;20624;55.870;26.506;2022-08-19T00:06:53;20.70;99.90
34360;DHT22;20624;55.870;26.506;2022-08-19T00:09:21;20.70;99.90
34360;DHT22;20624;55.870;26.506;2022-08-19T00:11:50;20.80;99.90
34360;DHT22;20624;55.870;26.506;2022-08-19T00:14:18;20.90;99.90
34360;DHT22;20624;55.870;26.506;2022-08-19T00:16:48;20.90;99.90
34360;DHT22;20624;55.870;26.506;2022-08-19T00:19:16;20.90;99.90
34360;DHT22;20624;55.870;26.506;2022-08-19T00:21:44;20.90;99.90
34360;DHT22;20624;55.870;26.506;2022-08-19T00:24:13;20.90;99.90
34360;DHT22;20624;55.870;26.506;2022-08-19T00:26:43;20.90;99.90
34360;DHT22;20624;55.870;26.506;2022-08-19T00:29:12;20.90;99.90
34360;DHT22;20624;55.870;26.506;2022-08-19T00:31:40;20.90;99.90
34360;DHT22;20624;55.870;26.506;2022-08-19T00:34:09;20.90;99.90
34360;DHT22;20624;55.870;26.506;2022-08-19T00:36:37;20.80;99.90
34360;DHT22;20624;55.870;26.506;2022-08-19T00:41:33;20.80;99.90
34360;DHT22;20624;55.870;26.506;2022-08-19T00:46:44;20.70;99.90
34360;DHT22;20624;55.870;26.506;2022-08-19T00:49:40;20.60;99.90
34360;DHT22;20624;55.870;26.506;2022-08-19T00:52:52;20.60;99.90
34360;DHT22;20624;55.870;26.506;2022-08-19T00:55:02;20.50;99.90
34360;DHT22;20624;55.870;26.506;2022-08-19T00:57:43;20.50;99.90
34360;DHT22;20624;55.870;26.506;2022-08-19T01:00:17;20.50;99.90
34360;DHT22;20624;55.870;26.506;2022-08-19T01:02:46;20.40;99.90
34360;DHT22;20624;55.870;26.506;2022-08-19T01:05:17;20.30;99.90
34360;DHT22;20624;55.870;26.506;2022-08-19T01:07:48;20.30;99.90
34360;DHT22;20624;55.870;26.506;2022-08-19T01:10:19;20.20;99.90
34360;DHT22;20624;55.870;26.506;2022-08-19T01:12:49;20.10;99.90
34360;DHT22;20624;55.870;26.506;2022-08-19T01:15:23;20.00;99.90
34360;DHT22;20624;55.870;26.506;2022-08-19T01:17:52;20.00;99.90
34360;DHT22;20624;55.870;26.506;2022-08-19T01:20:22;20.00;99.90
34360;DHT22;20624;55.870;26.506;2022-08-19T01:22:52;19.90;99.90
34360;DHT22;20624;55.870;26.506;2022-08-19T01:25:27;20.30;99.90
34360;DHT22;20624;55.870;26.506;2022-08-19T01:27:55;19.80;99.90
34360;DHT22;20624;55.870;26.506;2022-08-19T01:30:37;19.70;99.90
34360;DHT22;20624;55.870;26.506;2022-08-19T01:33:10;19.60;99.90
34360;DHT22;20624;55.870;26.506;2022-08-19T01:35:41;19.70;99.90
34360;DHT22;20624;55.870;26.506;2022-08-19T01:38:21;19.50;99.90
34360;DHT22;20624;55.870;26.506;2022-08-19T01:40:50;19.60;99.90
34360;DHT22;20624;55.870;26.506;2022-08-19T01:43:18;19.40;99.90
34360;DHT22;20624;55.870;26.506;2022-08-19T01:45:46;19.60;99.90
34360;DHT22;20624;55.870;26.506;2022-08-19T01:48:14;19.60;99.90
34360;DHT22;20624;55.870;26.506;2022-08-19T01:50:41;20.20;99.90
34360;DHT22;20624;55.870;26.506;2022-08-19T01:55:41;19.80;99.90
34360;DHT22;20624;55.870;26.506;2022-08-19T01:58:13;19.80;99.90
34360;DHT22;20624;55.870;26.506;2022-08-19T02:00:42;19.80;99.90
34360;DHT22;20624;55.870;26.506;2022-08-19T02:03:12;20.20;99.90
34360;DHT22;20624;55.870;26.506;2022-08-19T02:05:42;19.90;99.90
34360;DHT22;20624;55.870;26.506;2022-08-19T02:08:10;20.00;99.90
34360;DHT22;20624;55.870;26.506;2022-08-19T02:10:42;19.90;99.90
34360;DHT22;20624;55.870;26.506;2022-08-19T02:13:12;19.80;99.90
34360;DHT22;20624;55.870;26.506;2022-08-19T02:15:40;19.90;99.90
34360;DHT22;20624;55.870;26.506;2022-08-19T02:18:10;19.80;99.90
34360;DHT22;20624;55.870;26.506;2022-08-19T02:20:41;20.30;99.90
34360;DHT22;20624;55.870;26.506;2022-08-19T02:23:11;19.70;99.90
34360;DHT22;20624;55.870;26.506;2022-08-19T02:25:42;19.80;99.90
34360;DHT22;20624;55.870;26.506;2022-08-19T02:28:11;19.80;99.90
34360;DHT22;20624;55.870;26.506;2022-08-19T02:30:45;19.90;99.90
34360;DHT22;20624;55.870;26.506;2022-08-19T02:33:12;19.80;99.90
34360;DHT22;20624;55.870;26.506;2022-08-19T02:35:47;19.80;99.90
34360;DHT22;20624;55.870;26.506;2022-08-19T02:38:16;19.80;99.90
34360;DHT22;20624;55.870;26.506;2022-08-19T02:43:29;19.80;99.90
34360;DHT22;20624;55.870;26.506;2022-08-19T02:46:01;19.90;99.90
34360;DHT22;20624;55.870;26.506;2022-08-19T02:48:28;19.70;99.90
34360;DHT22;20624;55.870;26.506;2022-08-19T02:50:56;19.50;99.90
34360;DHT22;20624;55.870;26.506;2022-08-19T02:53:26;19.80;99.90
34360;DHT22;20624;55.870;26.506;2022-08-19T02:55:54;19.80;99.90
34360;DHT22;20624;55.870;26.506;2022-08-19T02:58:22;19.60;99.90
34360;DHT22;20624;55.870;26.506;2022-08-19T03:00:55;19.60;99.90
34360;DHT22;20624;55.870;26.506;2022-08-19T03:03:23;19.60;99.90
34360;DHT22;20624;55.870;26.506;2022-08-19T03:05:50;19.70;99.90
34360;DHT22;20624;55.870;26.506;2022-08-19T03:08:23;19.70;99.90
34360;DHT22;20624;55.870;26.506;2022-08-19T03:10:52;19.40;99.90
34360;DHT22;20624;55.870;26.506;2022-08-19T03:13:20;19.40;99.90
34360;DHT22;20624;55.870;26.506;2022-08-19T03:15:48;19.50;99.90
34360;DHT22;20624;55.870;26.506;2022-08-19T03:18:16;19.40;99.90
34360;DHT22;20624;55.870;26.506;2022-08-19T03:23:15;19.40;99.90
34360;DHT22;20624;55.870;26.506;2022-08-19T03:25:45;19.40;99.90
34360;DHT22;20624;55.870;26.506;2022-08-19T03:28:28;19.40;99.90
34360;DHT22;20624;55.870;26.506;2022-08-19T03:31:00;19.30;99.90
34360;DHT22;20624;55.870;26.506;2022-08-19T03:33:33;19.40;99.90
34360;DHT22;20624;55.870;26.506;2022-08-19T03:36:09;19.40;99.90
34360;DHT22;20624;55.870;26.506;2022-08-19T03:38:39;19.30;99.90
34360;DHT22;20624;55.870;26.506;2022-08-19T03:41:09;19.40;99.90
34360;DHT22;20624;55.870;26.506;2022-08-19T03:43:38;19.30;99.90
34360;DHT22;20624;55.870;26.506;2022-08-19T03:46:10;19.40;99.90
34360;DHT22;20624;55.870;26.506;2022-08-19T03:48:40;19.50;99.90
34360;DHT22;20624;55.870;26.506;2022-08-19T03:51:14;19.50;99.90
34360;DHT22;20624;55.870;26.506;2022-08-19T03:53:42;19.60;99.90
34360;DHT22;20624;55.870;26.506;2022-08-19T03:56:10;19.70;99.90
34360;DHT22;20624;55.870;26.506;2022-08-19T03:58:37;20.10;99.90
34360;DHT22;20624;55.870;26.506;2022-08-19T04:01:10;19.80;99.90
34360;DHT22;20624;55.870;26.506;2022-08-19T04:03:41;19.90;99.90
34360;DHT22;20624;55.870;26.506;2022-08-19T04:06:20;19.90;99.90
34360;DHT22;20624;55.870;26.506;2022-08-19T04:08:50;20.10;99.90
34360;DHT22;20624;55.870;26.506;2022-08-19T04:11:19;20.20;99.90
34360;DHT22;20624;55.870;26.506;2022-08-19T04:14:11;20.40;99.90
34360;DHT22;20624;55.870;26.506;2022-08-19T04:16:40;20.70;99.90
34360;DHT22;20624;55.870;26.506;2022-08-19T04:19:07;20.70;99.90
34360;DHT22;20624;55.870;26.506;2022-08-19T04:21:37;20.60;99.90
34360;DHT22;20624;55.870;26.506;2022-08-19T04:24:05;21.20;99.90
34360;DHT22;20624;55.870;26.506;2022-08-19T04:26:35;21.40;99.90
34360;DHT22;20624;55.870;26.506;2022-08-19T04:29:05;21.70;99.90
34360;DHT22;20624;55.870;26.506;2022-08-19T04:31:39;21.90;99.90
34360;DHT22;20624;55.870;26.506;2022-08-19T04:34:11;21.90;99.90
34360;DHT22;20624;55.870;26.506;2022-08-19T04:36:40;22.00;99.90
34360;DHT22;20624;55.870;26.506;2022-08-19T04:39:12;22.10;99.90
34360;DHT22;20624;55.870;26.506;2022-08-19T04:41:41;21.90;99.90
34360;DHT22;20624;55.870;26.506;2022-08-19T04:44:29;22.10;99.90
34360;DHT22;20624;55.870;26.506;2022-08-19T04:46:59;22.00;99.90
34360;DHT22;20624;55.870;26.506;2022-08-19T04:49:27;22.20;99.90
34360;DHT22;20624;55.870;26.506;2022-08-19T04:51:55;22.20;99.90
34360;DHT22;20624;55.870;26.506;2022-08-19T04:54:24;22.30;99.90
34360;DHT22;20624;55.870;26.506;2022-08-19T04:57:08;22.50;99.90
34360;DHT22;20624;55.870;26.506;2022-08-19T04:59:38;22.70;99.90
34360;DHT22;20624;55.870;26.506;2022-08-19T05:02:08;22.70;99.90
34360;DHT22;20624;55.870;26.506;2022-08-19T05:04:36;22.80;99.90
34360;DHT22;20624;55.870;26.506;2022-08-19T05:07:08;23.00;99.90
34360;DHT22;20624;55.870;26.506;2022-08-19T05:12:25;22.80;99.90
34360;DHT22;20624;55.870;26.506;2022-08-19T05:14:56;22.90;99.90
34360;DHT22;20624;55.870;26.506;2022-08-19T05:17:25;22.90;99.90
34360;DHT22;20624;55.870;26.506;2022-08-19T05:19:55;22.70;99.90
34360;DHT22;20624;55.870;26.506;2022-08-19T05:22:42;22.70;99.90
34360;DHT22;20624;55.870;26.506;2022-08-19T05:25:14;22.50;99.90
34360;DHT22;20624;55.870;26.506;2022-08-19T05:27:44;22.90;99.90
34360;DHT22;20624;55.870;26.506;2022-08-19T05:30:12;22.60;99.90
34360;DHT22;20624;55.870;26.506;2022-08-19T05:32:39;21.90;99.90
34360;DHT22;20624;55.870;26.506;2022-08-19T05:35:07;22.70;99.90
34360;DHT22;20624;55.870;26.506;2022-08-19T05:37:35;22.70;99.90
34360;DHT22;20624;55.870;26.506;2022-08-19T05:40:03;22.60;99.90
34360;DHT22;20624;55.870;26.506;2022-08-19T05:42:31;22.60;99.90
34360;DHT22;20624;55.870;26.506;2022-08-19T05:44:58;22.70;99.90
34360;DHT22;20624;55.870;26.506;2022-08-19T05:47:26;22.90;99.90
34360;DHT22;20624;55.870;26.506;2022-08-19T05:49:54;23.30;99.90
34360;DHT22;20624;55.870;26.506;2022-08-19T05:52:22;23.80;99.20
34360;DHT22;20624;55.870;26.506;2022-08-19T05:54:52;24.20;93.90
34360;DHT22;20624;55.870;26.506;2022-08-19T05:57:23;24.60;90.80
34360;DHT22;20624;55.870;26.506;2022-08-19T05:59:51;25.00;87.20
34360;DHT22;20624;55.870;26.506;2022-08-19T06:02:26;25.50;78.70
34360;DHT22;20624;55.870;26.506;2022-08-19T06:04:53;26.10;69.90
34360;DHT22;20624;55.870;26.506;2022-08-19T06:07:21;26.60;63.50
34360;DHT22;20624;55.870;26.506;2022-08-19T06:09:48;26.60;61.40
34360;DHT22;20624;55.870;26.506;2022-08-19T06:12:27;26.60;59.70
34360;DHT22;20624;55.870;26.506;2022-08-19T06:14:59;26.70;58.70
34360;DHT22;20624;55.870;26.506;2022-08-19T06:17:31;26.90;55.80
34360;DHT22;20624;55.870;26.506;2022-08-19T06:20:04;27.00;53.70
34360;DHT22;20624;55.870;26.506;2022-08-19T06:22:31;27.20;52.30
34360;DHT22;20624;55.870;26.506;2022-08-19T06:25:04;27.30;49.40
34360;DHT22;20624;55.870;26.506;2022-08-19T06:27:34;27.40;49.90
34360;DHT22;20624;55.870;26.506;2022-08-19T06:30:06;27.30;48.90
34360;DHT22;20624;55.870;26.506;2022-08-19T06:32:33;27.70;46.90
34360;DHT22;20624;55.870;26.506;2022-08-19T06:35:08;27.90;44.20
34360;DHT22;20624;55.870;26.506;2022-08-19T06:42:38;29.30;52.30
34360;DHT22;20624;55.870;26.506;2022-08-19T06:45:15;29.30;35.80
34360;DHT22;20624;55.870;26.506;2022-08-19T06:50:14;30.00;33.10
34360;DHT22;20624;55.870;26.506;2022-08-19T06:55:09;30.90;36.50
34360;DHT22;20624;55.870;26.506;2022-08-19T06:57:37;31.30;25.00
34360;DHT22;20624;55.870;26.506;2022-08-19T07:00:05;32.40;22.40
34360;DHT22;20624;55.870;26.506;2022-08-19T07:02:40;32.20;22.80
34360;DHT22;20624;55.870;26.506;2022-08-19T07:05:09;32.70;31.00
34360;DHT22;20624;55.870;26.506;2022-08-19T07:07:36;32.60;21.40
34360;DHT22;20624;55.870;26.506;2022-08-19T07:10:04;32.70;20.50
34360;DHT22;20624;55.870;26.506;2022-08-19T07:12:33;32.70;19.10
34360;DHT22;20624;55.870;26.506;2022-08-19T07:15:10;32.60;18.40
34360;DHT22;20624;55.870;26.506;2022-08-19T07:17:38;32.60;19.00
34360;DHT22;20624;55.870;26.506;2022-08-19T07:20:09;33.10;18.60
34360;DHT22;20624;55.870;26.506;2022-08-19T07:22:38;33.30;17.50
34360;DHT22;20624;55.870;26.506;2022-08-19T07:25:09;33.30;17.10
34360;DHT22;20624;55.870;26.506;2022-08-19T07:27:36;33.80;16.40
34360;DHT22;20624;55.870;26.506;2022-08-19T07:32:37;34.70;30.60
34360;DHT22;20624;55.870;26.506;2022-08-19T07:35:05;35.10;25.30
34360;DHT22;20624;55.870;26.506;2022-08-19T07:37:36;34.60;13.40
34360;DHT22;20624;55.870;26.506;2022-08-19T07:40:06;34.80;14.10
34360;DHT22;20624;55.870;26.506;2022-08-19T07:45:05;35.50;22.40
34360;DHT22;20624;55.870;26.506;2022-08-19T07:47:33;36.00;11.10
34360;DHT22;20624;55.870;26.506;2022-08-19T07:50:17;35.70;11.50
34360;DHT22;20624;55.870;26.506;2022-08-19T07:52:45;35.10;11.90
34360;DHT22;20624;55.870;26.506;2022-08-19T07:55:17;35.00;11.00
34360;DHT22;20624;55.870;26.506;2022-08-19T07:58:05;33.90;10.60
34360;DHT22;20624;55.870;26.506;2022-08-19T08:00:34;35.50;11.50
34360;DHT22;20624;55.870;26.506;2022-08-19T08:08:17;35.70;12.30
34360;DHT22;20624;55.870;26.506;2022-08-19T08:11:03;35.80;11.20
34360;DHT22;20624;55.870;26.506;2022-08-19T08:16:04;36.30;23.70
34360;DHT22;20624;55.870;26.506;2022-08-19T08:18:40;36.80;11.30
34360;DHT22;20624;55.870;26.506;2022-08-19T08:21:19;36.00;10.10
34360;DHT22;20624;55.870;26.506;2022-08-19T08:23:46;36.00;10.20
34360;DHT22;20624;55.870;26.506;2022-08-19T08:28:45;36.40;9.10
34360;DHT22;20624;55.870;26.506;2022-08-19T08:31:15;35.40;9.10
34360;DHT22;20624;55.870;26.506;2022-08-19T08:33:43;34.50;10.60
34360;DHT22;20624;55.870;26.506;2022-08-19T08:36:11;34.30;12.10
34360;DHT22;20624;55.870;26.506;2022-08-19T08:38:41;34.20;11.10
34360;DHT22;20624;55.870;26.506;2022-08-19T08:44:15;35.50;11.10
34360;DHT22;20624;55.870;26.506;2022-08-19T08:46:57;36.10;11.40
34360;DHT22;20624;55.870;26.506;2022-08-19T08:49:46;35.80;10.10
34360;DHT22;20624;55.870;26.506;2022-08-19T08:52:31;35.70;9.60
34360;DHT22;20624;55.870;26.506;2022-08-19T08:55:10;35.50;10.00
34360;DHT22;20624;55.870;26.506;2022-08-19T09:02:43;36.70;9.70
34360;DHT22;20624;55.870;26.506;2022-08-19T09:08:04;37.30;16.40
34360;DHT22;20624;55.870;26.506;2022-08-19T09:10:40;37.50;7.10
34360;DHT22;20624;55.870;26.506;2022-08-19T09:18:58;36.30;15.30
34360;DHT22;20624;55.870;26.506;2022-08-19T09:21:31;36.60;14.20
34360;DHT22;20624;55.870;26.506;2022-08-19T09:24:01;36.90;13.70
34360;DHT22;20624;55.870;26.506;2022-08-19T09:26:30;37.70;6.40
34360;DHT22;20624;55.870;26.506;2022-08-19T09:29:21;37.70;7.60
34360;DHT22;20624;55.870;26.506;2022-08-19T09:31:49;37.60;6.40
34360;DHT22;20624;55.870;26.506;2022-08-19T09:34:17;36.20;6.90
34360;DHT22;20624;55.870;26.506;2022-08-19T09:36:49;38.10;6.50
34360;DHT22;20624;55.870;26.506;2022-08-19T09:39:21;37.80;6.00
34360;DHT22;20624;55.870;26.506;2022-08-19T09:42:01;38.00;5.30
34360;DHT22;20624;55.870;26.506;2022-08-19T09:44:30;37.40;4.30
34360;DHT22;20624;55.870;26.506;2022-08-19T09:47:00;36.50;5.00
34360;DHT22;20624;55.870;26.506;2022-08-19T09:49:28;34.60;5.50
34360;DHT22;20624;55.870;26.506;2022-08-19T09:51:57;35.50;6.00
34360;DHT22;20624;55.870;26.506;2022-08-19T09:54:27;36.70;5.30
34360;DHT22;20624;55.870;26.506;2022-08-19T09:56:58;36.70;5.60
34360;DHT22;20624;55.870;26.506;2022-08-19T09:59:25;37.40;6.80
34360;DHT22;20624;55.870;26.506;2022-08-19T10:01:53;36.90;3.90
34360;DHT22;20624;55.870;26.506;2022-08-19T10:07:18;35.10;4.20
34360;DHT22;20624;55.870;26.506;2022-08-19T10:09:45;34.70;5.20
34360;DHT22;20624;55.870;26.506;2022-08-19T10:12:13;35.10;5.30
34360;DHT22;20624;55.870;26.506;2022-08-19T10:14:46;35.20;6.20
34360;DHT22;20624;55.870;26.506;2022-08-19T10:17:15;35.70;4.50
34360;DHT22;20624;55.870;26.506;2022-08-19T10:19:48;35.40;4.40
34360;DHT22;20624;55.870;26.506;2022-08-19T10:22:22;35.70;4.80
34360;DHT22;20624;55.870;26.506;2022-08-19T10:24:51;35.70;5.20
34360;DHT22;20624;55.870;26.506;2022-08-19T10:27:19;35.70;3.70
34360;DHT22;20624;55.870;26.506;2022-08-19T10:29:46;36.00;5.80
34360;DHT22;20624;55.870;26.506;2022-08-19T10:32:14;35.80;3.90
34360;DHT22;20624;55.870;26.506;2022-08-19T10:35:03;35.30;4.60
34360;DHT22;20624;55.870;26.506;2022-08-19T10:37:37;36.70;7.00
34360;DHT22;20624;55.870;26.506;2022-08-19T10:40:23;36.30;4.90
34360;DHT22;20624;55.870;26.506;2022-08-19T10:42:53;35.50;2.60
34360;DHT22;20624;55.870;26.506;2022-08-19T10:45:22;34.90;4.20
34360;DHT22;20624;55.870;26.506;2022-08-19T10:47:54;34.50;5.70
34360;DHT22;20624;55.870;26.506;2022-08-19T10:50:22;34.70;7.00
34360;DHT22;20624;55.870;26.506;2022-08-19T10:53:09;34.90;6.60
34360;DHT22;20624;55.870;26.506;2022-08-19T10:55:36;35.00;5.30
34360;DHT22;20624;55.870;26.506;2022-08-19T10:58:25;35.30;6.10
34360;DHT22;20624;55.870;26.506;2022-08-19T11:00:55;35.80;4.70
34360;DHT22;20624;55.870;26.506;2022-08-19T11:06:02;35.10;4.20
34360;DHT22;20624;55.870;26.506;2022-08-19T11:08:31;35.40;5.10
34360;DHT22;20624;55.870;26.506;2022-08-19T11:11:00;35.90;4.00
34360;DHT22;20624;55.870;26.506;2022-08-19T11:13:29;35.50;4.40
34360;DHT22;20624;55.870;26.506;2022-08-19T11:16:04;35.10;5.10
34360;DHT22;20624;55.870;26.506;2022-08-19T11:18:57;35.10;5.80
34360;DHT22;20624;55.870;26.506;2022-08-19T11:21:30;35.20;4.10
34360;DHT22;20624;55.870;26.506;2022-08-19T11:24:02;34.60;3.80
34360;DHT22;20624;55.870;26.506;2022-08-19T11:26:31;34.50;4.10
34360;DHT22;20624;55.870;26.506;2022-08-19T11:28:59;34.10;4.20
34360;DHT22;20624;55.870;26.506;2022-08-19T11:31:29;34.00;4.30
34360;DHT22;20624;55.870;26.506;2022-08-19T11:34:02;34.30;4.40
34360;DHT22;20624;55.870;26.506;2022-08-19T11:36:32;34.70;5.90
34360;DHT22;20624;55.870;26.506;2022-08-19T11:39:01;34.90;5.60
34360;DHT22;20624;55.870;26.506;2022-08-19T11:43:58;35.20;4.70
34360;DHT22;20624;55.870;26.506;2022-08-19T11:46:29;34.70;5.00
34360;DHT22;20624;55.870;26.506;2022-08-19T11:48:58;35.20;4.90
34360;DHT22;20624;55.870;26.506;2022-08-19T11:51:27;35.20;5.40
34360;DHT22;20624;55.870;26.506;2022-08-19T11:53:56;35.60;4.50
34360;DHT22;20624;55.870;26.506;2022-08-19T11:56:24;36.00;4.70
34360;DHT22;20624;55.870;26.506;2022-08-19T11:58:53;36.10;4.80
34360;DHT22;20624;55.870;26.506;2022-08-19T12:01:22;36.00;3.40
34360;DHT22;20624;55.870;26.506;2022-08-19T12:03:51;35.00;4.90
34360;DHT22;20624;55.870;26.506;2022-08-19T12:06:27;34.50;4.30
34360;DHT22;20624;55.870;26.506;2022-08-19T12:08:57;33.90;4.20
34360;DHT22;20624;55.870;26.506;2022-08-19T12:11:25;33.60;3.90
34360;DHT22;20624;55.870;26.506;2022-08-19T12:13:52;33.40;4.30
34360;DHT22;20624;55.870;26.506;2022-08-19T12:16:25;33.00;5.40
34360;DHT22;20624;55.870;26.506;2022-08-19T12:18:57;33.10;6.00
34360;DHT22;20624;55.870;26.506;2022-08-19T12:21:27;33.10;7.10
34360;DHT22;20624;55.870;26.506;2022-08-19T12:24:00;33.10;7.20
34360;DHT22;20624;55.870;26.506;2022-08-19T12:26:29;33.00;7.50
34360;DHT22;20624;55.870;26.506;2022-08-19T12:28:58;33.40;6.20
34360;DHT22;20624;55.870;26.506;2022-08-19T12:31:30;33.10;5.90
34360;DHT22;20624;55.870;26.506;2022-08-19T12:33:57;32.90;6.20
34360;DHT22;20624;55.870;26.506;2022-08-19T12:36:25;32.60;6.50
34360;DHT22;20624;55.870;26.506;2022-08-19T12:38:53;32.30;6.80
34360;DHT22;20624;55.870;26.506;2022-08-19T12:41:24;32.20;7.60
34360;DHT22;20624;55.870;26.506;2022-08-19T12:43:52;32.30;7.50
34360;DHT22;20624;55.870;26.506;2022-08-19T12:46:21;32.70;7.80
34360;DHT22;20624;55.870;26.506;2022-08-19T12:48:52;33.10;7.20
34360;DHT22;20624;55.870;26.506;2022-08-19T12:53:49;33.10;5.80
34360;DHT22;20624;55.870;26.506;2022-08-19T12:56:17;33.00;6.00
34360;DHT22;20624;55.870;26.506;2022-08-19T12:58:49;32.60;6.10
34360;DHT22;20624;55.870;26.506;2022-08-19T13:01:19;32.60;6.40
34360;DHT22;20624;55.870;26.506;2022-08-19T13:03:49;32.40;6.50
34360;DHT22;20624;55.870;26.506;2022-08-19T13:06:21;31.90;7.30
34360;DHT22;20624;55.870;26.506;2022-08-19T13:08:49;31.90;8.00
34360;DHT22;20624;55.870;26.506;2022-08-19T13:11:19;31.80;7.40
34360;DHT22;20624;55.870;26.506;2022-08-19T13:13:47;31.70;7.40
34360;DHT22;20624;55.870;26.506;2022-08-19T13:16:14;31.90;9.60
34360;DHT22;20624;55.870;26.506;2022-08-19T13:18:44;31.90;7.00
34360;DHT22;20624;55.870;26.506;2022-08-19T13:21:14;31.90;7.50
34360;DHT22;20624;55.870;26.506;2022-08-19T13:23:42;31.90;7.90
34360;DHT22;20624;55.870;26.506;2022-08-19T13:26:10;32.20;7.70
34360;DHT22;20624;55.870;26.506;2022-08-19T13:28:39;32.10;5.80
34360;DHT22;20624;55.870;26.506;2022-08-19T13:31:27;32.10;6.20
34360;DHT22;20624;55.870;26.506;2022-08-19T13:34:14;32.00;8.10
34360;DHT22;20624;55.870;26.506;2022-08-19T13:36:43;32.00;7.20
34360;DHT22;20624;55.870;26.506;2022-08-19T13:39:13;32.20;8.50
34360;DHT22;20624;55.870;26.506;2022-08-19T13:41:44;32.10;7.70
34360;DHT22;20624;55.870;26.506;2022-08-19T13:44:15;31.50;7.10
34360;DHT22;20624;55.870;26.506;2022-08-19T13:46:46;31.70;8.20
34360;DHT22;20624;55.870;26.506;2022-08-19T13:49:20;31.50;9.30
34360;DHT22;20624;55.870;26.506;2022-08-19T13:51:53;31.50;9.50
34360;DHT22;20624;55.870;26.506;2022-08-19T13:54:20;31.30;10.20
34360;DHT22;20624;55.870;26.506;2022-08-19T13:56:48;31.20;9.70
34360;DHT22;20624;55.870;26.506;2022-08-19T13:59:16;31.10;9.80
34360;DHT22;20624;55.870;26.506;2022-08-19T14:01:46;30.70;10.30
34360;DHT22;20624;55.870;26.506;2022-08-19T14:04:17;30.30;12.20
34360;DHT22;20624;55.870;26.506;2022-08-19T14:06:44;30.10;11.20
34360;DHT22;20624;55.870;26.506;2022-08-19T14:09:12;30.00;11.30
34360;DHT22;20624;55.870;26.506;2022-08-19T14:11:42;30.00;10.80
34360;DHT22;20624;55.870;26.506;2022-08-19T14:14:12;29.90;11.30
34360;DHT22;20624;55.870;26.506;2022-08-19T14:16:42;30.00;12.60
34360;DHT22;20624;55.870;26.506;2022-08-19T14:19:09;29.80;11.90
34360;DHT22;20624;55.870;26.506;2022-08-19T14:21:37;29.60;12.40
34360;DHT22;20624;55.870;26.506;2022-08-19T14:24:08;29.50;13.30
34360;DHT22;20624;55.870;26.506;2022-08-19T14:26:35;29.30;13.60
34360;DHT22;20624;55.870;26.506;2022-08-19T14:29:03;29.10;28.40
34360;DHT22;20624;55.870;26.506;2022-08-19T14:31:30;29.00;15.10
34360;DHT22;20624;55.870;26.506;2022-08-19T14:33:58;29.00;15.80
34360;DHT22;20624;55.870;26.506;2022-08-19T14:36:26;29.90;15.80
34360;DHT22;20624;55.870;26.506;2022-08-19T14:38:53;29.00;15.50
34360;DHT22;20624;55.870;26.506;2022-08-19T14:41:22;28.90;16.00
34360;DHT22;20624;55.870;26.506;2022-08-19T14:43:52;28.80;16.20
34360;DHT22;20624;55.870;26.506;2022-08-19T14:46:27;29.20;30.40
34360;DHT22;20624;55.870;26.506;2022-08-19T14:51:26;28.50;18.80
34360;DHT22;20624;55.870;26.506;2022-08-19T14:53:54;28.30;27.00
34360;DHT22;20624;55.870;26.506;2022-08-19T14:56:25;28.40;24.10
34360;DHT22;20624;55.870;26.506;2022-08-19T14:58:55;28.50;27.40
34360;DHT22;20624;55.870;26.506;2022-08-19T15:08:50;26.80;44.50
34360;DHT22;20624;55.870;26.506;2022-08-19T15:16:16;27.70;24.80
34360;DHT22;20624;55.870;26.506;2022-08-19T15:18:45;27.80;25.50
34360;DHT22;20624;55.870;26.506;2022-08-19T15:21:14;27.90;28.80
34360;DHT22;20624;55.870;26.506;2022-08-19T15:23:54;27.80;32.80
34360;DHT22;20624;55.870;26.506;2022-08-19T15:26:22;27.60;20.80
34360;DHT22;20624;55.870;26.506;2022-08-19T15:28:51;27.50;21.20
34360;DHT22;20624;55.870;26.506;2022-08-19T15:31:20;27.60;22.00
34360;DHT22;20624;55.870;26.506;2022-08-19T15:33:56;27.60;21.80
34360;DHT22;20624;55.870;26.506;2022-08-19T15:36:25;27.60;21.70
34360;DHT22;20624;55.870;26.506;2022-08-19T15:38:53;27.60;22.70
34360;DHT22;20624;55.870;26.506;2022-08-19T15:41:26;27.60;23.20
34360;DHT22;20624;55.870;26.506;2022-08-19T15:43:57;27.50;22.40
34360;DHT22;20624;55.870;26.506;2022-08-19T15:46:28;27.50;23.10
34360;DHT22;20624;55.870;26.506;2022-08-19T15:51:28;27.40;23.20
34360;DHT22;20624;55.870;26.506;2022-08-19T15:56:24;27.10;24.20
34360;DHT22;20624;55.870;26.506;2022-08-19T15:58:56;27.20;24.60
34360;DHT22;20624;55.870;26.506;2022-08-19T16:01:43;27.40;26.00
34360;DHT22;20624;55.870;26.506;2022-08-19T16:04:29;27.00;26.60
34360;DHT22;20624;55.870;26.506;2022-08-19T16:09:49;26.80;33.00
34360;DHT22;20624;55.870;26.506;2022-08-19T16:14:45;26.70;28.20
34360;DHT22;20624;55.870;26.506;2022-08-19T16:19:42;26.60;30.20
34360;DHT22;20624;55.870;26.506;2022-08-19T16:24:38;26.40;30.40
34360;DHT22;20624;55.870;26.506;2022-08-19T16:29:33;26.30;31.30
34360;DHT22;20624;55.870;26.506;2022-08-19T16:34:38;26.10;35.10
34360;DHT22;20624;55.870;26.506;2022-08-19T16:37:08;26.10;35.10
34360;DHT22;20624;55.870;26.506;2022-08-19T16:39:37;26.00;36.30
34360;DHT22;20624;55.870;26.506;2022-08-19T16:42:06;26.00;37.10
34360;DHT22;20624;55.870;26.506;2022-08-19T16:44:39;25.90;36.70
34360;DHT22;20624;55.870;26.506;2022-08-19T16:47:09;25.90;38.60
34360;DHT22;20624;55.870;26.506;2022-08-19T16:49:38;25.90;38.60
34360;DHT22;20624;55.870;26.506;2022-08-19T16:52:21;25.80;38.50
34360;DHT22;20624;55.870;26.506;2022-08-19T16:54:52;25.80;39.60
34360;DHT22;20624;55.870;26.506;2022-08-19T16:57:20;25.80;38.30
34360;DHT22;20624;55.870;26.506;2022-08-19T16:59:49;25.80;37.30
34360;DHT22;20624;55.870;26.506;2022-08-19T17:02:20;25.70;37.00
34360;DHT22;20624;55.870;26.506;2022-08-19T17:04:49;25.70;36.80
34360;DHT22;20624;55.870;26.506;2022-08-19T17:07:26;25.50;37.40
34360;DHT22;20624;55.870;26.506;2022-08-19T17:09:54;25.50;38.20
34360;DHT22;20624;55.870;26.506;2022-08-19T17:12:23;25.40;38.40
34360;DHT22;20624;55.870;26.506;2022-08-19T17:14:59;25.40;38.70
34360;DHT22;20624;55.870;26.506;2022-08-19T17:19:57;24.80;39.50
34360;DHT22;20624;55.870;26.506;2022-08-19T17:22:25;25.10;40.80
34360;DHT22;20624;55.870;26.506;2022-08-19T17:24:53;24.90;43.10
34360;DHT22;20624;55.870;26.506;2022-08-19T17:27:25;24.90;43.10
34360;DHT22;20624;55.870;26.506;2022-08-19T17:29:57;24.80;44.50